sensor_id;sensor_type;location;lat;lon;timestamp;temperature;humidity
16823;DHT22;8528;49.976;11.858;2023-11-22T00:00:59;2.10;99.90
16823;DHT22;8528;49.976;11.858;2023-11-22T00:03:26;2.10;99.90
16823;DHT22;8528;49.976;11.858;2023-11-22T00:05:53;2.00;99.90
16823;DHT22;8528;49.976;11.858;2023-11-22T00:08:20;2.00;99.90
16823;DHT22;8528;49.976;11.858;2023-11-22T00:10:47;2.00;99.90
16823;DHT22;8528;49.976;11.858;2023-11-22T00:13:13;1.90;99.90
16823;DHT22;8528;49.976;11.858;2023-11-22T00:15:40;2.00;99.90
16823;DHT22;8528;49.976;11.858;2023-11-22T00:18:09;2.00;99.90
16823;DHT22;8528;49.976;11.858;2023-11-22T00:20:36;2.00;99.90
16823;DHT22;8528;49.976;11.858;2023-11-22T00:23:03;1.90;99.90
16823;DHT22;8528;49.976;11.858;2023-11-22T00:25:30;2.00;99.90
16823;DHT22;8528;49.976;11.858;2023-11-22T00:27:56;1.90;99.90
16823;DHT22;8528;49.976;11.858;2023-11-22T00:30:23;1.90;99.90
16823;DHT22;8528;49.976;11.858;2023-11-22T00:32:50;1.90;99.90
16823;DHT22;8528;49.976;11.858;2023-11-22T00:35:18;1.90;99.90
16823;DHT22;8528;49.976;11.858;2023-11-22T00:37:45;1.90;99.90
16823;DHT22;8528;49.976;11.858;2023-11-22T00:40:12;1.90;99.90
16823;DHT22;8528;49.976;11.858;2023-11-22T00:42:40;1.90;99.90
16823;DHT22;8528;49.976;11.858;2023-11-22T00:45:10;1.90;99.90
16823;DHT22;8528;49.976;11.858;2023-11-22T00:47:37;1.90;99.90
16823;DHT22;8528;49.976;11.858;2023-11-22T00:50:04;1.80;99.90
16823;DHT22;8528;49.976;11.858;2023-11-22T00:52:31;1.80;99.90
16823;DHT22;8528;49.976;11.858;2023-11-22T00:54:58;1.70;99.90
16823;DHT22;8528;49.976;11.858;2023-11-22T00:57:25;1.70;99.90
16823;DHT22;8528;49.976;11.858;2023-11-22T00:59:53;1.70;99.90
16823;DHT22;8528;49.976;11.858;2023-11-22T01:02:20;1.60;99.90
16823;DHT22;8528;49.976;11.858;2023-11-22T01:04:47;1.50;99.90
16823;DHT22;8528;49.976;11.858;2023-11-22T01:07:14;1.50;99.90
16823;DHT22;8528;49.976;11.858;2023-11-22T01:09:41;1.50;99.90
16823;DHT22;8528;49.976;11.858;2023-11-22T01:12:08;1.50;99.90
16823;DHT22;8528;49.976;11.858;2023-11-22T01:14:35;1.50;99.90
16823;DHT22;8528;49.976;11.858;2023-11-22T01:17:02;1.50;99.90
16823;DHT22;8528;49.976;11.858;2023-11-22T01:19:29;1.50;99.90
16823;DHT22;8528;49.976;11.858;2023-11-22T01:21:56;1.50;99.90
16823;DHT22;8528;49.976;11.858;2023-11-22T01:24:25;1.50;99.90
16823;DHT22;8528;49.976;11.858;2023-11-22T01:26:54;1.50;99.90
16823;DHT22;8528;49.976;11.858;2023-11-22T01:29:22;1.50;99.90
16823;DHT22;8528;49.976;11.858;2023-11-22T01:31:50;1.50;99.90
16823;DHT22;8528;49.976;11.858;2023-11-22T01:34:16;1.50;99.90
16823;DHT22;8528;49.976;11.858;2023-11-22T01:36:44;1.40;99.90
16823;DHT22;8528;49.976;11.858;2023-11-22T01:39:12;1.40;99.90
16823;DHT22;8528;49.976;11.858;2023-11-22T01:41:44;1.40;99.90
16823;DHT22;8528;49.976;11.858;2023-11-22T01:44:12;1.30;99.90
16823;DHT22;8528;49.976;11.858;2023-11-22T01:46:38;1.30;99.90
16823;DHT22;8528;49.976;11.858;2023-11-22T01:49:05;1.30;99.90
16823;DHT22;8528;49.976;11.858;2023-11-22T01:51:32;1.30;99.90
16823;DHT22;8528;49.976;11.858;2023-11-22T01:53:59;1.30;99.90
16823;DHT22;8528;49.976;11.858;2023-11-22T01:56:27;1.30;99.90
16823;DHT22;8528;49.976;11.858;2023-11-22T01:58:56;1.20;99.90
16823;DHT22;8528;49.976;11.858;2023-11-22T02:01:28;1.20;99.90
16823;DHT22;8528;49.976;11.858;2023-11-22T02:03:55;1.10;99.90
16823;DHT22;8528;49.976;11.858;2023-11-22T02:06:22;1.20;99.90
16823;DHT22;8528;49.976;11.858;2023-11-22T02:08:49;1.20;99.90
16823;DHT22;8528;49.976;11.858;2023-11-22T02:11:17;1.20;99.90
16823;DHT22;8528;49.976;11.858;2023-11-22T02:13:48;1.10;99.90
16823;DHT22;8528;49.976;11.858;2023-11-22T02:16:19;1.10;99.90
16823;DHT22;8528;49.976;11.858;2023-11-22T02:18:47;1.10;99.90
16823;DHT22;8528;49.976;11.858;2023-11-22T02:21:16;1.10;99.90
16823;DHT22;8528;49.976;11.858;2023-11-22T02:23:44;1.10;99.90
16823;DHT22;8528;49.976;11.858;2023-11-22T02:26:10;1.10;99.90
16823;DHT22;8528;49.976;11.858;2023-11-22T02:28:38;1.10;99.90
16823;DHT22;8528;49.976;11.858;2023-11-22T02:31:05;1.10;99.90
16823;DHT22;8528;49.976;11.858;2023-11-22T02:33:31;1.10;99.90
16823;DHT22;8528;49.976;11.858;2023-11-22T02:35:58;1.10;99.90
16823;DHT22;8528;49.976;11.858;2023-11-22T02:38:25;1.10;99.90
16823;DHT22;8528;49.976;11.858;2023-11-22T02:40:53;1.10;99.90
16823;DHT22;8528;49.976;11.858;2023-11-22T02:43:20;1.00;99.90
16823;DHT22;8528;49.976;11.858;2023-11-22T02:45:47;1.00;99.90
16823;DHT22;8528;49.976;11.858;2023-11-22T02:48:14;1.00;99.90
16823;DHT22;8528;49.976;11.858;2023-11-22T02:50:41;1.00;99.90
16823;DHT22;8528;49.976;11.858;2023-11-22T02:53:10;1.00;99.90
16823;DHT22;8528;49.976;11.858;2023-11-22T02:55:37;1.00;99.90
16823;DHT22;8528;49.976;11.858;2023-11-22T02:58:04;1.00;99.90
16823;DHT22;8528;49.976;11.858;2023-11-22T03:00:31;0.90;99.90
16823;DHT22;8528;49.976;11.858;2023-11-22T03:02:59;1.00;99.90
16823;DHT22;8528;49.976;11.858;2023-11-22T03:05:26;1.00;99.90
16823;DHT22;8528;49.976;11.858;2023-11-22T03:07:53;0.90;99.90
16823;DHT22;8528;49.976;11.858;2023-11-22T03:10:20;0.90;99.90
16823;DHT22;8528;49.976;11.858;2023-11-22T03:12:47;0.90;99.90
16823;DHT22;8528;49.976;11.858;2023-11-22T03:15:14;0.90;99.90
16823;DHT22;8528;49.976;11.858;2023-11-22T03:17:41;0.90;99.90
16823;DHT22;8528;49.976;11.858;2023-11-22T03:20:08;0.90;99.90
16823;DHT22;8528;49.976;11.858;2023-11-22T03:22:38;0.90;99.90
16823;DHT22;8528;49.976;11.858;2023-11-22T03:25:05;0.90;99.90
16823;DHT22;8528;49.976;11.858;2023-11-22T03:27:32;0.90;99.90
16823;DHT22;8528;49.976;11.858;2023-11-22T03:29:59;0.90;99.90
16823;DHT22;8528;49.976;11.858;2023-11-22T03:32:26;1.00;99.90
16823;DHT22;8528;49.976;11.858;2023-11-22T03:34:53;1.00;99.90
16823;DHT22;8528;49.976;11.858;2023-11-22T03:37:20;0.90;99.90
16823;DHT22;8528;49.976;11.858;2023-11-22T03:39:47;1.00;99.90
16823;DHT22;8528;49.976;11.858;2023-11-22T03:42:17;1.00;99.90
16823;DHT22;8528;49.976;11.858;2023-11-22T03:44:43;1.00;99.90
16823;DHT22;8528;49.976;11.858;2023-11-22T03:47:11;1.00;99.90
16823;DHT22;8528;49.976;11.858;2023-11-22T03:49:41;0.90;99.90
16823;DHT22;8528;49.976;11.858;2023-11-22T03:52:07;0.90;99.90
16823;DHT22;8528;49.976;11.858;2023-11-22T03:54:35;0.70;99.90
16823;DHT22;8528;49.976;11.858;2023-11-22T03:57:02;0.70;99.90
16823;DHT22;8528;49.976;11.858;2023-11-22T03:59:29;0.70;99.90
16823;DHT22;8528;49.976;11.858;2023-11-22T04:01:56;0.70;99.90
16823;DHT22;8528;49.976;11.858;2023-11-22T04:04:23;0.70;99.90
16823;DHT22;8528;49.976;11.858;2023-11-22T04:06:50;0.70;99.90
16823;DHT22;8528;49.976;11.858;2023-11-22T04:09:17;0.70;99.90
16823;DHT22;8528;49.976;11.858;2023-11-22T04:11:44;0.70;99.90
16823;DHT22;8528;49.976;11.858;2023-11-22T04:14:11;0.60;99.90
16823;DHT22;8528;49.976;11.858;2023-11-22T04:16:38;0.50;99.90
16823;DHT22;8528;49.976;11.858;2023-11-22T04:19:05;0.50;99.90
16823;DHT22;8528;49.976;11.858;2023-11-22T04:21:32;0.50;99.90
16823;DHT22;8528;49.976;11.858;2023-11-22T04:23:59;0.50;99.90
16823;DHT22;8528;49.976;11.858;2023-11-22T04:26:25;0.40;99.90
16823;DHT22;8528;49.976;11.858;2023-11-22T04:28:53;0.40;99.90
16823;DHT22;8528;49.976;11.858;2023-11-22T04:31:20;0.40;99.90
16823;DHT22;8528;49.976;11.858;2023-11-22T04:33:46;0.40;99.90
16823;DHT22;8528;49.976;11.858;2023-11-22T04:36:14;0.40;99.90
16823;DHT22;8528;49.976;11.858;2023-11-22T04:38:40;0.50;99.90
16823;DHT22;8528;49.976;11.858;2023-11-22T04:41:07;0.50;99.90
16823;DHT22;8528;49.976;11.858;2023-11-22T04:43:34;0.40;99.90
16823;DHT22;8528;49.976;11.858;2023-11-22T04:46:01;0.40;99.90
16823;DHT22;8528;49.976;11.858;2023-11-22T04:48:28;0.40;99.90
16823;DHT22;8528;49.976;11.858;2023-11-22T04:50:55;0.40;99.90
16823;DHT22;8528;49.976;11.858;2023-11-22T04:53:21;0.40;99.90
16823;DHT22;8528;49.976;11.858;2023-11-22T04:55:48;0.40;99.90
16823;DHT22;8528;49.976;11.858;2023-11-22T04:58:15;0.40;99.90
16823;DHT22;8528;49.976;11.858;2023-11-22T05:00:42;0.50;99.90
16823;DHT22;8528;49.976;11.858;2023-11-22T05:03:09;0.40;99.90
16823;DHT22;8528;49.976;11.858;2023-11-22T05:05:36;0.50;99.90
16823;DHT22;8528;49.976;11.858;2023-11-22T05:08:03;0.50;99.90
16823;DHT22;8528;49.976;11.858;2023-11-22T05:10:30;0.50;99.90
16823;DHT22;8528;49.976;11.858;2023-11-22T05:12:57;0.40;99.90
16823;DHT22;8528;49.976;11.858;2023-11-22T05:15:27;0.50;99.90
16823;DHT22;8528;49.976;11.858;2023-11-22T05:17:54;0.40;99.90
16823;DHT22;8528;49.976;11.858;2023-11-22T05:20:21;0.40;99.90
16823;DHT22;8528;49.976;11.858;2023-11-22T05:22:48;0.40;99.90
16823;DHT22;8528;49.976;11.858;2023-11-22T05:25:15;0.40;99.90
16823;DHT22;8528;49.976;11.858;2023-11-22T05:27:42;0.30;99.90
16823;DHT22;8528;49.976;11.858;2023-11-22T05:30:09;0.30;99.90
16823;DHT22;8528;49.976;11.858;2023-11-22T05:32:37;0.40;99.90
16823;DHT22;8528;49.976;11.858;2023-11-22T05:35:04;0.40;99.90
16823;DHT22;8528;49.976;11.858;2023-11-22T05:37:36;0.40;99.90
16823;DHT22;8528;49.976;11.858;2023-11-22T05:40:04;0.40;99.90
16823;DHT22;8528;49.976;11.858;2023-11-22T05:42:32;0.40;99.90
16823;DHT22;8528;49.976;11.858;2023-11-22T05:44:58;0.40;99.90
16823;DHT22;8528;49.976;11.858;2023-11-22T05:47:25;0.40;99.90
16823;DHT22;8528;49.976;11.858;2023-11-22T05:49:52;0.40;99.90
16823;DHT22;8528;49.976;11.858;2023-11-22T05:52:19;0.50;99.90
16823;DHT22;8528;49.976;11.858;2023-11-22T05:54:47;0.50;99.90
16823;DHT22;8528;49.976;11.858;2023-11-22T05:57:14;0.50;99.90
16823;DHT22;8528;49.976;11.858;2023-11-22T05:59:41;0.50;99.90
16823;DHT22;8528;49.976;11.858;2023-11-22T06:02:08;0.40;99.90
16823;DHT22;8528;49.976;11.858;2023-11-22T06:04:35;0.30;99.90
16823;DHT22;8528;49.976;11.858;2023-11-22T06:07:04;0.30;99.90
16823;DHT22;8528;49.976;11.858;2023-11-22T06:09:31;0.30;99.90
16823;DHT22;8528;49.976;11.858;2023-11-22T06:11:58;0.30;99.90
16823;DHT22;8528;49.976;11.858;2023-11-22T06:14:25;0.30;99.90
16823;DHT22;8528;49.976;11.858;2023-11-22T06:16:52;0.30;99.90
16823;DHT22;8528;49.976;11.858;2023-11-22T06:19:19;0.30;99.90
16823;DHT22;8528;49.976;11.858;2023-11-22T06:21:46;0.30;99.90
16823;DHT22;8528;49.976;11.858;2023-11-22T06:24:12;0.30;99.90
16823;DHT22;8528;49.976;11.858;2023-11-22T06:26:43;0.30;99.90
16823;DHT22;8528;49.976;11.858;2023-11-22T06:29:13;0.30;99.90
16823;DHT22;8528;49.976;11.858;2023-11-22T06:31:40;0.30;99.90
16823;DHT22;8528;49.976;11.858;2023-11-22T06:34:07;0.40;99.90
16823;DHT22;8528;49.976;11.858;2023-11-22T06:36:34;0.40;99.90
16823;DHT22;8528;49.976;11.858;2023-11-22T06:39:01;0.40;99.90
16823;DHT22;8528;49.976;11.858;2023-11-22T06:41:28;0.40;99.90
16823;DHT22;8528;49.976;11.858;2023-11-22T06:43:55;0.40;99.90
16823;DHT22;8528;49.976;11.858;2023-11-22T06:46:22;0.40;99.90
16823;DHT22;8528;49.976;11.858;2023-11-22T06:48:49;0.40;99.90
16823;DHT22;8528;49.976;11.858;2023-11-22T06:51:16;0.40;99.90
16823;DHT22;8528;49.976;11.858;2023-11-22T06:53:45;0.50;99.90
16823;DHT22;8528;49.976;11.858;2023-11-22T06:56:12;0.40;99.90
16823;DHT22;8528;49.976;11.858;2023-11-22T06:58:39;0.50;99.90
16823;DHT22;8528;49.976;11.858;2023-11-22T07:01:07;0.40;99.90
16823;DHT22;8528;49.976;11.858;2023-11-22T07:03:34;0.40;99.90
16823;DHT22;8528;49.976;11.858;2023-11-22T07:06:01;0.40;99.90
16823;DHT22;8528;49.976;11.858;2023-11-22T07:08:28;0.40;99.90
16823;DHT22;8528;49.976;11.858;2023-11-22T07:10:55;0.40;99.90
16823;DHT22;8528;49.976;11.858;2023-11-22T07:13:23;0.30;99.90
16823;DHT22;8528;49.976;11.858;2023-11-22T07:16:09;0.30;99.90
16823;DHT22;8528;49.976;11.858;2023-11-22T07:18:36;0.30;99.90
16823;DHT22;8528;49.976;11.858;2023-11-22T07:21:03;0.30;99.90
16823;DHT22;8528;49.976;11.858;2023-11-22T07:23:30;0.30;99.90
16823;DHT22;8528;49.976;11.858;2023-11-22T07:25:57;0.30;99.90
16823;DHT22;8528;49.976;11.858;2023-11-22T07:28:24;0.40;99.90
16823;DHT22;8528;49.976;11.858;2023-11-22T07:30:51;0.40;99.90
16823;DHT22;8528;49.976;11.858;2023-11-22T07:33:18;0.40;99.90
16823;DHT22;8528;49.976;11.858;2023-11-22T07:35:47;0.50;99.90
16823;DHT22;8528;49.976;11.858;2023-11-22T07:38:14;0.50;99.90
16823;DHT22;8528;49.976;11.858;2023-11-22T07:40:41;0.50;99.90
16823;DHT22;8528;49.976;11.858;2023-11-22T07:43:08;0.50;99.90
16823;DHT22;8528;49.976;11.858;2023-11-22T07:45:35;0.50;99.90
16823;DHT22;8528;49.976;11.858;2023-11-22T07:48:06;0.40;99.90
16823;DHT22;8528;49.976;11.858;2023-11-22T07:50:33;0.50;99.90
16823;DHT22;8528;49.976;11.858;2023-11-22T07:53:00;0.50;99.90
16823;DHT22;8528;49.976;11.858;2023-11-22T07:55:27;0.50;99.90
16823;DHT22;8528;49.976;11.858;2023-11-22T07:57:54;0.50;99.90
16823;DHT22;8528;49.976;11.858;2023-11-22T08:00:22;0.50;99.90
16823;DHT22;8528;49.976;11.858;2023-11-22T08:02:49;0.50;99.90
16823;DHT22;8528;49.976;11.858;2023-11-22T08:05:16;0.40;99.90
16823;DHT22;8528;49.976;11.858;2023-11-22T08:07:44;0.40;99.90
16823;DHT22;8528;49.976;11.858;2023-11-22T08:10:15;0.40;99.90
16823;DHT22;8528;49.976;11.858;2023-11-22T08:12:52;0.50;99.90
16823;DHT22;8528;49.976;11.858;2023-11-22T08:15:18;0.40;99.90
16823;DHT22;8528;49.976;11.858;2023-11-22T08:17:46;0.40;99.90
16823;DHT22;8528;49.976;11.858;2023-11-22T08:20:13;0.40;99.90
16823;DHT22;8528;49.976;11.858;2023-11-22T08:22:45;0.40;99.90
16823;DHT22;8528;49.976;11.858;2023-11-22T08:25:12;0.30;99.90
16823;DHT22;8528;49.976;11.858;2023-11-22T08:27:40;0.40;99.90
16823;DHT22;8528;49.976;11.858;2023-11-22T08:30:10;0.40;99.90
16823;DHT22;8528;49.976;11.858;2023-11-22T08:32:43;0.40;99.90
16823;DHT22;8528;49.976;11.858;2023-11-22T08:35:10;0.40;99.90
16823;DHT22;8528;49.976;11.858;2023-11-22T08:37:40;0.50;99.90
16823;DHT22;8528;49.976;11.858;2023-11-22T08:40:10;0.50;99.90
16823;DHT22;8528;49.976;11.858;2023-11-22T08:42:47;0.50;99.90
16823;DHT22;8528;49.976;11.858;2023-11-22T08:45:15;0.60;99.90
16823;DHT22;8528;49.976;11.858;2023-11-22T08:47:42;0.70;99.90
16823;DHT22;8528;49.976;11.858;2023-11-22T08:50:09;0.80;99.90
16823;DHT22;8528;49.976;11.858;2023-11-22T08:52:39;0.80;99.90
16823;DHT22;8528;49.976;11.858;2023-11-22T08:55:08;0.80;99.90
16823;DHT22;8528;49.976;11.858;2023-11-22T08:57:36;0.80;99.90
16823;DHT22;8528;49.976;11.858;2023-11-22T09:00:05;0.90;99.90
16823;DHT22;8528;49.976;11.858;2023-11-22T09:02:36;1.00;99.90
16823;DHT22;8528;49.976;11.858;2023-11-22T09:05:04;0.90;99.90
16823;DHT22;8528;49.976;11.858;2023-11-22T09:07:35;1.00;99.90
16823;DHT22;8528;49.976;11.858;2023-11-22T09:10:03;1.10;99.90
16823;DHT22;8528;49.976;11.858;2023-11-22T09:12:38;1.00;99.90
16823;DHT22;8528;49.976;11.858;2023-11-22T09:15:10;1.00;99.90
16823;DHT22;8528;49.976;11.858;2023-11-22T09:17:41;1.00;99.90
16823;DHT22;8528;49.976;11.858;2023-11-22T09:20:13;0.80;99.90
16823;DHT22;8528;49.976;11.858;2023-11-22T09:22:42;0.50;99.90
16823;DHT22;8528;49.976;11.858;2023-11-22T09:25:12;0.40;99.90
16823;DHT22;8528;49.976;11.858;2023-11-22T09:27:39;0.50;99.90
16823;DHT22;8528;49.976;11.858;2023-11-22T09:30:07;0.50;99.90
16823;DHT22;8528;49.976;11.858;2023-11-22T09:32:45;0.50;99.90
16823;DHT22;8528;49.976;11.858;2023-11-22T09:35:14;0.40;99.90
16823;DHT22;8528;49.976;11.858;2023-11-22T09:37:41;0.40;99.90
16823;DHT22;8528;49.976;11.858;2023-11-22T09:40:09;0.30;99.90
16823;DHT22;8528;49.976;11.858;2023-11-22T09:42:36;0.40;99.90
16823;DHT22;8528;49.976;11.858;2023-11-22T09:45:04;0.30;99.90
16823;DHT22;8528;49.976;11.858;2023-11-22T09:47:32;0.30;99.90
16823;DHT22;8528;49.976;11.858;2023-11-22T09:50:03;0.50;99.90
16823;DHT22;8528;49.976;11.858;2023-11-22T09:52:33;0.50;99.90
16823;DHT22;8528;49.976;11.858;2023-11-22T09:55:04;0.50;99.90
16823;DHT22;8528;49.976;11.858;2023-11-22T09:57:32;0.60;99.90
16823;DHT22;8528;49.976;11.858;2023-11-22T10:00:01;0.60;99.90
16823;DHT22;8528;49.976;11.858;2023-11-22T10:02:27;0.60;99.90
16823;DHT22;8528;49.976;11.858;2023-11-22T10:04:55;0.70;99.90
16823;DHT22;8528;49.976;11.858;2023-11-22T10:07:23;0.70;99.90
16823;DHT22;8528;49.976;11.858;2023-11-22T10:09:51;0.70;99.90
16823;DHT22;8528;49.976;11.858;2023-11-22T10:12:21;0.70;99.90
16823;DHT22;8528;49.976;11.858;2023-11-22T10:14:47;0.80;99.90
16823;DHT22;8528;49.976;11.858;2023-11-22T10:17:15;0.80;99.90
16823;DHT22;8528;49.976;11.858;2023-11-22T10:19:43;0.80;99.90
16823;DHT22;8528;49.976;11.858;2023-11-22T10:22:10;0.80;99.90
16823;DHT22;8528;49.976;11.858;2023-11-22T10:24:37;0.90;99.90
16823;DHT22;8528;49.976;11.858;2023-11-22T10:27:04;0.90;99.90
16823;DHT22;8528;49.976;11.858;2023-11-22T10:29:31;0.90;99.90
16823;DHT22;8528;49.976;11.858;2023-11-22T10:31:58;0.80;99.90
16823;DHT22;8528;49.976;11.858;2023-11-22T10:34:25;0.80;99.90
16823;DHT22;8528;49.976;11.858;2023-11-22T10:36:52;0.80;99.90
16823;DHT22;8528;49.976;11.858;2023-11-22T10:39:20;0.80;99.90
16823;DHT22;8528;49.976;11.858;2023-11-22T10:41:48;0.70;99.90
16823;DHT22;8528;49.976;11.858;2023-11-22T10:44:20;0.60;99.90
16823;DHT22;8528;49.976;11.858;2023-11-22T10:46:47;0.70;99.90
16823;DHT22;8528;49.976;11.858;2023-11-22T10:49:15;0.80;99.90
16823;DHT22;8528;49.976;11.858;2023-11-22T10:51:51;0.80;99.90
16823;DHT22;8528;49.976;11.858;2023-11-22T10:54:20;0.70;99.90
16823;DHT22;8528;49.976;11.858;2023-11-22T10:56:54;0.60;99.90
16823;DHT22;8528;49.976;11.858;2023-11-22T10:59:22;0.70;99.90
16823;DHT22;8528;49.976;11.858;2023-11-22T11:01:53;0.80;99.90
16823;DHT22;8528;49.976;11.858;2023-11-22T11:04:29;1.00;99.90
16823;DHT22;8528;49.976;11.858;2023-11-22T11:06:59;1.10;99.90
16823;DHT22;8528;49.976;11.858;2023-11-22T11:09:27;1.10;99.90
16823;DHT22;8528;49.976;11.858;2023-11-22T11:11:59;1.20;99.90
16823;DHT22;8528;49.976;11.858;2023-11-22T11:14:27;1.20;99.90
16823;DHT22;8528;49.976;11.858;2023-11-22T11:16:54;1.20;99.90
16823;DHT22;8528;49.976;11.858;2023-11-22T11:19:25;1.20;99.90
16823;DHT22;8528;49.976;11.858;2023-11-22T11:21:54;1.10;99.90
16823;DHT22;8528;49.976;11.858;2023-11-22T11:24:21;1.00;99.90
16823;DHT22;8528;49.976;11.858;2023-11-22T11:26:48;1.00;99.90
16823;DHT22;8528;49.976;11.858;2023-11-22T11:29:36;1.10;99.90
16823;DHT22;8528;49.976;11.858;2023-11-22T11:32:11;1.00;99.90
16823;DHT22;8528;49.976;11.858;2023-11-22T11:34:49;1.00;99.90
16823;DHT22;8528;49.976;11.858;2023-11-22T11:37:20;1.00;99.90
16823;DHT22;8528;49.976;11.858;2023-11-22T11:39:47;1.00;99.90
16823;DHT22;8528;49.976;11.858;2023-11-22T11:42:15;1.20;99.90
16823;DHT22;8528;49.976;11.858;2023-11-22T11:45:05;1.10;99.90
16823;DHT22;8528;49.976;11.858;2023-11-22T11:47:34;1.30;99.90
16823;DHT22;8528;49.976;11.858;2023-11-22T11:50:01;1.40;99.90
16823;DHT22;8528;49.976;11.858;2023-11-22T11:52:29;1.40;99.90
16823;DHT22;8528;49.976;11.858;2023-11-22T11:54:58;1.50;99.90
16823;DHT22;8528;49.976;11.858;2023-11-22T11:57:26;1.50;99.90
16823;DHT22;8528;49.976;11.858;2023-11-22T11:59:52;1.60;99.90
16823;DHT22;8528;49.976;11.858;2023-11-22T12:02:21;1.60;99.90
16823;DHT22;8528;49.976;11.858;2023-11-22T12:04:48;1.60;99.90
16823;DHT22;8528;49.976;11.858;2023-11-22T12:07:15;1.40;99.90
16823;DHT22;8528;49.976;11.858;2023-11-22T12:09:42;1.40;99.90
16823;DHT22;8528;49.976;11.858;2023-11-22T12:12:08;1.40;99.90
16823;DHT22;8528;49.976;11.858;2023-11-22T12:14:36;1.40;99.90
16823;DHT22;8528;49.976;11.858;2023-11-22T12:17:04;1.30;99.90
16823;DHT22;8528;49.976;11.858;2023-11-22T12:19:32;1.30;99.90
16823;DHT22;8528;49.976;11.858;2023-11-22T12:22:00;1.30;99.90
16823;DHT22;8528;49.976;11.858;2023-11-22T12:24:27;1.50;99.90
16823;DHT22;8528;49.976;11.858;2023-11-22T12:26:55;1.60;99.90
16823;DHT22;8528;49.976;11.858;2023-11-22T12:29:23;1.80;99.90
16823;DHT22;8528;49.976;11.858;2023-11-22T12:31:51;1.80;99.90
16823;DHT22;8528;49.976;11.858;2023-11-22T12:34:19;1.90;99.90
16823;DHT22;8528;49.976;11.858;2023-11-22T12:36:49;1.90;99.90
16823;DHT22;8528;49.976;11.858;2023-11-22T12:39:16;1.90;99.90
16823;DHT22;8528;49.976;11.858;2023-11-22T12:41:51;1.90;99.90
16823;DHT22;8528;49.976;11.858;2023-11-22T12:44:32;1.80;99.90
16823;DHT22;8528;49.976;11.858;2023-11-22T12:47:13;1.80;99.90
16823;DHT22;8528;49.976;11.858;2023-11-22T12:49:44;1.90;99.90
16823;DHT22;8528;49.976;11.858;2023-11-22T12:52:14;2.10;99.90
16823;DHT22;8528;49.976;11.858;2023-11-22T12:54:41;2.10;99.90
16823;DHT22;8528;49.976;11.858;2023-11-22T12:57:11;2.20;99.90
16823;DHT22;8528;49.976;11.858;2023-11-22T12:59:39;2.30;99.90
16823;DHT22;8528;49.976;11.858;2023-11-22T13:02:08;2.30;99.90
16823;DHT22;8528;49.976;11.858;2023-11-22T13:04:35;2.30;99.90
16823;DHT22;8528;49.976;11.858;2023-11-22T13:07:03;2.30;99.90
16823;DHT22;8528;49.976;11.858;2023-11-22T13:09:29;2.10;99.90
16823;DHT22;8528;49.976;11.858;2023-11-22T13:11:59;2.10;99.90
16823;DHT22;8528;49.976;11.858;2023-11-22T13:14:25;2.00;99.90
16823;DHT22;8528;49.976;11.858;2023-11-22T13:16:56;2.00;99.90
16823;DHT22;8528;49.976;11.858;2023-11-22T13:19:23;1.90;99.90
16823;DHT22;8528;49.976;11.858;2023-11-22T13:21:51;2.00;99.90
16823;DHT22;8528;49.976;11.858;2023-11-22T13:24:18;1.90;99.90
16823;DHT22;8528;49.976;11.858;2023-11-22T13:26:47;1.90;99.90
16823;DHT22;8528;49.976;11.858;2023-11-22T13:29:14;1.90;99.90
16823;DHT22;8528;49.976;11.858;2023-11-22T13:31:41;1.80;99.90
16823;DHT22;8528;49.976;11.858;2023-11-22T13:34:08;1.70;99.90
16823;DHT22;8528;49.976;11.858;2023-11-22T13:36:35;1.60;99.90
16823;DHT22;8528;49.976;11.858;2023-11-22T13:39:02;1.70;99.90
16823;DHT22;8528;49.976;11.858;2023-11-22T13:41:31;1.60;99.90
16823;DHT22;8528;49.976;11.858;2023-11-22T13:43:59;1.50;99.90
16823;DHT22;8528;49.976;11.858;2023-11-22T13:46:27;1.50;99.90
16823;DHT22;8528;49.976;11.858;2023-11-22T13:48:54;1.40;99.90
16823;DHT22;8528;49.976;11.858;2023-11-22T13:51:21;1.40;99.90
16823;DHT22;8528;49.976;11.858;2023-11-22T13:53:50;1.30;99.90
16823;DHT22;8528;49.976;11.858;2023-11-22T13:56:20;1.20;99.90
16823;DHT22;8528;49.976;11.858;2023-11-22T13:58:47;1.20;99.90
16823;DHT22;8528;49.976;11.858;2023-11-22T14:01:13;1.20;99.90
16823;DHT22;8528;49.976;11.858;2023-11-22T14:03:48;1.30;99.90
16823;DHT22;8528;49.976;11.858;2023-11-22T14:06:15;1.40;99.90
16823;DHT22;8528;49.976;11.858;2023-11-22T14:08:43;1.40;99.90
16823;DHT22;8528;49.976;11.858;2023-11-22T14:11:11;1.40;99.90
16823;DHT22;8528;49.976;11.858;2023-11-22T14:13:39;1.40;99.90
16823;DHT22;8528;49.976;11.858;2023-11-22T14:16:07;1.50;99.90
16823;DHT22;8528;49.976;11.858;2023-11-22T14:18:35;1.40;99.90
16823;DHT22;8528;49.976;11.858;2023-11-22T14:21:02;1.50;99.90
16823;DHT22;8528;49.976;11.858;2023-11-22T14:23:30;1.40;99.90
16823;DHT22;8528;49.976;11.858;2023-11-22T14:25:57;1.30;99.90
16823;DHT22;8528;49.976;11.858;2023-11-22T14:28:23;1.30;99.90
16823;DHT22;8528;49.976;11.858;2023-11-22T14:30:50;1.20;99.90
16823;DHT22;8528;49.976;11.858;2023-11-22T14:33:21;1.20;99.90
16823;DHT22;8528;49.976;11.858;2023-11-22T14:35:49;1.20;99.90
16823;DHT22;8528;49.976;11.858;2023-11-22T14:38:16;1.10;99.90
16823;DHT22;8528;49.976;11.858;2023-11-22T14:40:44;1.10;99.90
16823;DHT22;8528;49.976;11.858;2023-11-22T14:43:11;1.00;99.90
16823;DHT22;8528;49.976;11.858;2023-11-22T14:45:38;1.00;99.90
16823;DHT22;8528;49.976;11.858;2023-11-22T14:48:05;0.90;99.90
16823;DHT22;8528;49.976;11.858;2023-11-22T14:50:33;0.80;99.90
16823;DHT22;8528;49.976;11.858;2023-11-22T14:53:00;0.70;99.90
16823;DHT22;8528;49.976;11.858;2023-11-22T14:55:27;0.80;99.90
16823;DHT22;8528;49.976;11.858;2023-11-22T14:57:54;0.70;99.90
16823;DHT22;8528;49.976;11.858;2023-11-22T15:00:24;0.70;99.90
16823;DHT22;8528;49.976;11.858;2023-11-22T15:02:52;0.60;99.90
16823;DHT22;8528;49.976;11.858;2023-11-22T15:05:22;0.50;99.90
16823;DHT22;8528;49.976;11.858;2023-11-22T15:07:50;0.60;99.90
16823;DHT22;8528;49.976;11.858;2023-11-22T15:10:24;0.60;99.90
16823;DHT22;8528;49.976;11.858;2023-11-22T15:12:52;0.60;99.90
16823;DHT22;8528;49.976;11.858;2023-11-22T15:15:20;0.70;99.90
16823;DHT22;8528;49.976;11.858;2023-11-22T15:17:51;0.70;99.90
16823;DHT22;8528;49.976;11.858;2023-11-22T15:20:18;0.70;99.90
16823;DHT22;8528;49.976;11.858;2023-11-22T15:22:44;0.70;99.90
16823;DHT22;8528;49.976;11.858;2023-11-22T15:25:12;0.70;99.90
16823;DHT22;8528;49.976;11.858;2023-11-22T15:27:42;0.80;99.90
16823;DHT22;8528;49.976;11.858;2023-11-22T15:30:09;0.80;99.90
16823;DHT22;8528;49.976;11.858;2023-11-22T15:32:40;0.80;99.90
16823;DHT22;8528;49.976;11.858;2023-11-22T15:35:07;0.80;99.90
16823;DHT22;8528;49.976;11.858;2023-11-22T15:37:35;0.80;99.90
16823;DHT22;8528;49.976;11.858;2023-11-22T15:40:03;0.80;99.90
16823;DHT22;8528;49.976;11.858;2023-11-22T15:42:30;0.80;99.90
16823;DHT22;8528;49.976;11.858;2023-11-22T15:44:57;0.80;99.90
16823;DHT22;8528;49.976;11.858;2023-11-22T15:47:24;0.80;99.90
16823;DHT22;8528;49.976;11.858;2023-11-22T15:49:52;0.80;99.90